createdAt,value
2023-05-09T00:01:35.409Z,73.71
2023-05-09T00:04:02.768Z,73.13
2023-05-09T00:06:29.935Z,73.60
2023-05-09T00:08:57.110Z,73.80
2023-05-09T00:11:24.300Z,73.67
2023-05-09T00:13:52.054Z,73.42
2023-05-09T00:16:20.654Z,73.37
2023-05-09T00:18:48.268Z,73.91
2023-05-09T00:21:15.735Z,73.28
2023-05-09T00:23:42.913Z,73.00
2023-05-09T00:26:10.667Z,73.48
2023-05-09T00:28:39.309Z,72.98
2023-05-09T00:31:06.839Z,73.13
2023-05-09T00:33:34.085Z,74.27
2023-05-09T00:36:01.591Z,74.25
2023-05-09T00:38:28.805Z,74.40
2023-05-09T00:40:55.918Z,73.45
2023-05-09T00:43:23.159Z,73.08
2023-05-09T00:45:50.820Z,73.76
2023-05-09T00:48:19.558Z,73.72
2023-05-09T00:50:52.689Z,73.77
2023-05-09T00:53:20.774Z,73.84
2023-05-09T00:55:48.314Z,73.40
2023-05-09T00:58:15.972Z,73.06
2023-05-09T01:00:43.518Z,73.11
2023-05-09T01:03:11.298Z,73.05
2023-05-09T01:05:47.606Z,74.02
2023-05-09T01:08:31.271Z,73.77
2023-05-09T01:11:13.054Z,73.33
2023-05-09T01:13:49.395Z,73.79
2023-05-09T01:16:32.827Z,73.83
2023-05-09T01:19:23.303Z,73.57
2023-05-09T01:21:51.233Z,73.85
2023-05-09T01:24:21.344Z,73.89
2023-05-09T01:27:12.986Z,73.48
2023-05-09T01:29:48.458Z,72.78
2023-05-09T01:32:24.350Z,73.44
2023-05-09T01:34:54.444Z,74.00
2023-05-09T01:37:35.710Z,73.21
2023-05-09T01:40:14.716Z,73.63
2023-05-09T01:42:47.658Z,73.65
2023-05-09T01:45:16.268Z,73.87
2023-05-09T01:47:44.115Z,74.43
2023-05-09T01:50:12.766Z,74.17
2023-05-09T01:52:42.533Z,74.15
2023-05-09T01:55:11.735Z,73.71
2023-05-09T01:57:40.461Z,74.00
2023-05-09T02:00:10.230Z,73.88
2023-05-09T02:02:41.088Z,74.88
2023-05-09T02:05:11.289Z,74.98
2023-05-09T02:07:41.415Z,74.48
2023-05-09T02:10:10.189Z,75.74
2023-05-09T02:12:38.494Z,75.26
2023-05-09T02:15:06.794Z,75.05
2023-05-09T02:17:34.258Z,75.11
2023-05-09T02:20:01.621Z,75.01
2023-05-09T02:22:29.037Z,74.93
2023-05-09T02:24:57.107Z,75.37
2023-05-09T02:27:24.830Z,75.58
2023-05-09T02:29:57.558Z,76.22
2023-05-09T02:32:28.888Z,75.94
2023-05-09T02:34:58.936Z,76.35
2023-05-09T02:37:26.924Z,76.24
2023-05-09T02:39:55.005Z,76.03
2023-05-09T02:42:25.405Z,76.20
2023-05-09T02:44:53.850Z,76.64
2023-05-09T02:47:21.607Z,76.81
2023-05-09T02:49:48.833Z,77.11
2023-05-09T02:52:16.612Z,77.30
2023-05-09T02:54:43.883Z,78.28
2023-05-09T02:57:11.144Z,78.68
2023-05-09T02:59:38.381Z,78.13
2023-05-09T03:02:05.518Z,78.26
2023-05-09T03:04:32.755Z,77.77
2023-05-09T03:07:00.319Z,78.87
2023-05-09T03:09:31.801Z,78.94
2023-05-09T03:11:59.069Z,78.59
2023-05-09T03:14:26.320Z,79.26
2023-05-09T03:16:55.365Z,79.23
2023-05-09T03:19:30.511Z,78.16
2023-05-09T03:21:57.802Z,78.62
2023-05-09T03:24:26.700Z,78.26
2023-05-09T03:26:54.608Z,78.42
2023-05-09T03:29:22.523Z,78.31
2023-05-09T03:31:50.068Z,78.29
2023-05-09T03:34:17.275Z,77.43
2023-05-09T03:36:45.305Z,77.41
2023-05-09T03:39:14.803Z,77.65
2023-05-09T03:41:45.336Z,78.55
2023-05-09T03:44:13.175Z,77.65
2023-05-09T03:46:40.633Z,77.57
2023-05-09T03:49:08.246Z,76.93
2023-05-09T03:51:36.762Z,77.61
2023-05-09T03:54:06.698Z,76.81
2023-05-09T03:56:35.018Z,77.26
2023-05-09T03:59:02.200Z,76.06
2023-05-09T04:01:30.664Z,76.98
2023-05-09T04:04:00.390Z,76.98
2023-05-09T04:06:30.142Z,76.76
2023-05-09T04:08:58.316Z,76.04
2023-05-09T04:11:25.757Z,76.52
2023-05-09T04:13:54.752Z,77.30
2023-05-09T04:16:31.798Z,76.71
2023-05-09T04:18:59.568Z,76.73
2023-05-09T04:21:26.799Z,76.02
2023-05-09T04:23:56.961Z,76.67
2023-05-09T04:26:31.537Z,75.37
2023-05-09T04:28:59.725Z,75.98
2023-05-09T04:31:27.123Z,75.54
2023-05-09T04:33:54.469Z,75.16
2023-05-09T04:36:23.099Z,75.20
2023-05-09T04:38:50.465Z,74.27
2023-05-09T04:41:23.041Z,74.30
2023-05-09T04:43:50.723Z,74.41
2023-05-09T04:46:18.228Z,73.56
2023-05-09T04:48:45.463Z,73.70
2023-05-09T04:51:12.554Z,73.60
2023-05-09T04:53:39.710Z,73.73
2023-05-09T04:56:07.300Z,73.13
2023-05-09T04:58:38.529Z,72.14
2023-05-09T05:01:09.750Z,71.44
2023-05-09T05:03:37.223Z,69.32
2023-05-09T05:06:05.466Z,66.99
2023-05-09T05:08:33.144Z,65.71
2023-05-09T05:11:00.461Z,63.86
2023-05-09T05:13:28.372Z,62.24
2023-05-09T05:15:59.065Z,61.89
2023-05-09T05:18:26.428Z,61.01
2023-05-09T05:20:54.455Z,60.94
2023-05-09T05:23:22.035Z,59.61
2023-05-09T05:25:52.733Z,58.21
2023-05-09T05:28:20.227Z,57.28
2023-05-09T05:30:47.851Z,57.52
2023-05-09T05:33:15.088Z,57.40
2023-05-09T05:35:42.247Z,57.31
2023-05-09T05:38:09.448Z,55.50
2023-05-09T05:40:37.151Z,53.84
2023-05-09T05:43:06.275Z,53.28
2023-05-09T05:45:36.025Z,54.29
2023-05-09T05:48:05.742Z,53.25
2023-05-09T05:50:33.512Z,51.72
2023-05-09T05:53:01.062Z,52.90
2023-05-09T05:55:28.365Z,51.31
2023-05-09T05:57:55.634Z,50.28
2023-05-09T06:00:22.974Z,52.24
2023-05-09T06:02:57.173Z,49.62
2023-05-09T06:05:34.029Z,49.73
2023-05-09T06:08:01.354Z,49.87
2023-05-09T06:10:28.661Z,48.28
2023-05-09T06:12:56.092Z,50.49
2023-05-09T06:15:23.969Z,47.57
2023-05-09T06:17:51.540Z,47.75
2023-05-09T06:20:18.775Z,47.61
2023-05-09T06:22:46.431Z,46.80
2023-05-09T06:25:13.837Z,46.67
2023-05-09T06:27:42.336Z,49.36
2023-05-09T06:30:23.971Z,48.28
2023-05-09T06:32:53.917Z,49.44
2023-05-09T06:35:21.220Z,47.76
2023-05-09T06:37:49.176Z,49.98
2023-05-09T06:40:17.095Z,49.71
2023-05-09T06:42:45.078Z,47.57
2023-05-09T06:45:12.699Z,47.78
2023-05-09T06:47:40.115Z,48.41
2023-05-09T06:50:08.166Z,46.67
2023-05-09T06:52:35.978Z,48.74
2023-05-09T06:55:03.847Z,49.01
2023-05-09T06:57:31.636Z,48.28
2023-05-09T06:59:58.800Z,46.15
2023-05-09T07:02:26.070Z,48.07
2023-05-09T07:04:53.318Z,47.94
2023-05-09T07:07:20.682Z,48.97
2023-05-09T07:09:50.732Z,48.12
2023-05-09T07:12:20.146Z,44.70
2023-05-09T07:14:47.352Z,48.48
2023-05-09T07:17:23.052Z,48.95
2023-05-09T07:19:51.986Z,48.00
2023-05-09T07:22:19.420Z,47.23
2023-05-09T07:24:46.796Z,47.66
2023-05-09T07:27:14.041Z,48.07
2023-05-09T07:29:41.350Z,47.21
2023-05-09T07:32:08.804Z,46.37
2023-05-09T07:34:36.629Z,46.90
2023-05-09T07:37:03.828Z,46.04
2023-05-09T07:39:31.040Z,47.54
2023-05-09T07:41:58.239Z,46.69
2023-05-09T07:44:25.801Z,46.39
2023-05-09T07:46:55.335Z,44.38
2023-05-09T07:49:22.579Z,45.82
2023-05-09T07:51:49.755Z,44.69
2023-05-09T07:54:17.224Z,45.10
2023-05-09T07:56:44.364Z,43.14
2023-05-09T07:59:12.322Z,46.57
2023-05-09T08:01:39.554Z,45.47
2023-05-09T08:04:09.165Z,44.57
2023-05-09T08:06:36.835Z,45.00
2023-05-09T08:09:04.858Z,46.21
2023-05-09T08:11:36.016Z,44.25
2023-05-09T08:14:03.396Z,43.26
2023-05-09T08:16:30.824Z,44.98
2023-05-09T08:18:58.186Z,43.78
2023-05-09T08:21:25.649Z,42.56
2023-05-09T08:23:53.202Z,41.31
2023-05-09T08:26:22.598Z,43.58
2023-05-09T08:28:49.780Z,42.14
2023-05-09T08:31:17.004Z,43.09
2023-05-09T08:33:44.249Z,43.16
2023-05-09T08:36:11.496Z,42.66
2023-05-09T08:38:40.521Z,41.59
2023-05-09T08:41:07.774Z,41.85
2023-05-09T08:43:35.524Z,41.10
2023-05-09T08:46:10.650Z,43.97
2023-05-09T08:48:38.941Z,43.28
2023-05-09T08:51:07.069Z,44.29
2023-05-09T08:53:34.668Z,42.88
2023-05-09T08:56:04.027Z,41.94
2023-05-09T08:58:32.103Z,43.36
2023-05-09T09:01:00.207Z,42.27
2023-05-09T09:03:27.715Z,41.79
2023-05-09T09:05:56.316Z,40.70
2023-05-09T09:08:24.473Z,40.28
2023-05-09T09:10:52.011Z,40.55
2023-05-09T09:13:20.586Z,41.50
2023-05-09T09:15:51.545Z,41.78
2023-05-09T09:18:23.587Z,44.18
2023-05-09T09:20:58.361Z,46.63
2023-05-09T09:23:27.212Z,47.60
2023-05-09T09:26:04.481Z,47.93
2023-05-09T09:28:32.613Z,47.55
2023-05-09T09:30:59.763Z,49.51
2023-05-09T09:33:28.702Z,48.80
2023-05-09T09:35:57.125Z,46.90
2023-05-09T09:38:24.871Z,49.66
2023-05-09T09:40:52.031Z,49.23
2023-05-09T09:43:19.389Z,47.85
2023-05-09T09:45:53.338Z,48.26
2023-05-09T09:48:30.791Z,47.70
2023-05-09T09:51:02.172Z,47.17
2023-05-09T09:53:30.675Z,47.31
2023-05-09T09:55:58.678Z,47.61
2023-05-09T09:58:26.542Z,49.80
2023-05-09T10:01:16.881Z,47.86
2023-05-09T10:03:46.218Z,48.99
2023-05-09T10:06:16.026Z,48.53
2023-05-09T10:08:46.844Z,49.09
2023-05-09T10:11:14.449Z,48.61
2023-05-09T10:13:42.548Z,48.94
2023-05-09T10:16:10.554Z,49.00
2023-05-09T10:18:39.716Z,49.79
2023-05-09T10:21:09.581Z,48.20
2023-05-09T10:23:38.444Z,49.50
2023-05-09T10:26:17.817Z,49.33
2023-05-09T10:28:48.199Z,47.05
2023-05-09T10:31:22.277Z,47.28
2023-05-09T10:33:51.037Z,46.89
2023-05-09T10:36:26.223Z,47.22
2023-05-09T10:38:54.990Z,47.55
2023-05-09T10:41:23.707Z,48.20
2023-05-09T10:43:51.292Z,47.47
2023-05-09T10:46:18.750Z,47.33
2023-05-09T10:48:48.036Z,47.48
2023-05-09T10:51:17.600Z,46.98
2023-05-09T10:53:47.047Z,46.87
2023-05-09T10:56:26.431Z,45.57
2023-05-09T10:58:54.730Z,46.49
2023-05-09T11:01:34.941Z,45.61
2023-05-09T11:04:08.693Z,47.46
2023-05-09T11:06:42.044Z,45.59
2023-05-09T11:09:35.797Z,44.85
2023-05-09T11:12:05.983Z,44.79
2023-05-09T11:14:35.994Z,45.34
2023-05-09T11:17:05.183Z,47.05
2023-05-09T11:19:36.918Z,47.97
2023-05-09T11:22:16.518Z,45.82
2023-05-09T11:25:07.454Z,46.35
2023-05-09T11:27:52.163Z,45.50
2023-05-09T11:30:20.724Z,45.98
2023-05-09T11:32:52.148Z,46.51
2023-05-09T11:35:21.632Z,45.82
2023-05-09T11:38:06.638Z,45.99
2023-05-09T11:40:37.456Z,45.17
2023-05-09T11:43:07.064Z,44.22
2023-05-09T11:45:34.817Z,44.99
2023-05-09T11:48:09.028Z,44.03
2023-05-09T11:50:36.231Z,44.07
2023-05-09T11:53:03.339Z,43.50
2023-05-09T11:55:31.572Z,44.46
2023-05-09T11:57:59.025Z,44.00
2023-05-09T12:00:26.538Z,44.39
2023-05-09T12:02:54.223Z,44.56
2023-05-09T12:05:22.856Z,44.85
2023-05-09T12:07:50.975Z,45.32
2023-05-09T12:10:25.531Z,45.01
2023-05-09T12:12:55.693Z,45.98
2023-05-09T12:15:23.149Z,45.97
2023-05-09T12:18:08.155Z,45.61
2023-05-09T12:20:41.494Z,45.04
2023-05-09T12:23:11.087Z,46.94
2023-05-09T12:25:38.623Z,45.55
2023-05-09T12:28:06.104Z,47.13
2023-05-09T12:30:33.548Z,46.96
2023-05-09T12:33:01.006Z,46.81
2023-05-09T12:35:28.282Z,46.43
2023-05-09T12:37:57.860Z,44.92
2023-05-09T12:40:25.477Z,44.37
2023-05-09T12:42:54.406Z,45.63
2023-05-09T12:45:21.661Z,45.03
2023-05-09T12:47:52.367Z,45.18
2023-05-09T12:50:19.770Z,45.22
2023-05-09T12:53:01.865Z,44.36
2023-05-09T12:55:31.824Z,44.90
2023-05-09T12:58:01.508Z,45.89
2023-05-09T13:00:29.210Z,46.34
2023-05-09T13:02:57.135Z,47.85
2023-05-09T13:05:24.690Z,48.40
2023-05-09T13:07:56.225Z,45.67
2023-05-09T13:10:26.190Z,45.47
2023-05-09T13:12:53.766Z,45.13
2023-05-09T13:15:26.785Z,44.99
2023-05-09T13:17:54.386Z,45.14
2023-05-09T13:20:21.638Z,45.28
2023-05-09T13:22:48.983Z,46.80
2023-05-09T13:25:16.926Z,46.05
2023-05-09T13:27:44.150Z,45.21
2023-05-09T13:30:12.724Z,42.95
2023-05-09T13:32:40.236Z,44.50
2023-05-09T13:35:08.052Z,43.26
2023-05-09T13:37:35.707Z,43.53
2023-05-09T13:40:04.315Z,43.71
2023-05-09T13:42:33.402Z,43.45
2023-05-09T13:45:00.939Z,43.84
2023-05-09T13:47:28.378Z,44.56
2023-05-09T13:49:55.571Z,44.60
2023-05-09T13:52:23.223Z,44.07
2023-05-09T13:54:50.441Z,44.58
2023-05-09T13:57:17.706Z,44.44
2023-05-09T13:59:44.809Z,44.52
2023-05-09T14:02:12.893Z,44.25
2023-05-09T14:04:41.619Z,42.93
2023-05-09T14:07:11.199Z,41.75
2023-05-09T14:09:40.221Z,43.81
2023-05-09T14:12:07.951Z,42.40
2023-05-09T14:14:35.311Z,42.45
2023-05-09T14:17:02.867Z,42.66
2023-05-09T14:19:33.023Z,42.60
2023-05-09T14:22:00.269Z,44.28
2023-05-09T14:24:30.808Z,43.96
2023-05-09T14:26:58.010Z,43.15
2023-05-09T14:29:25.227Z,44.05
2023-05-09T14:31:52.535Z,43.30
2023-05-09T14:34:19.798Z,42.94
2023-05-09T14:36:47.021Z,43.04
2023-05-09T14:39:14.261Z,43.32
2023-05-09T14:41:41.545Z,43.41
2023-05-09T14:44:08.699Z,43.55
2023-05-09T14:46:37.001Z,43.78
2023-05-09T14:49:04.368Z,44.22
2023-05-09T14:51:33.302Z,45.24
2023-05-09T14:54:03.118Z,45.48
2023-05-09T14:56:31.593Z,45.47
2023-05-09T14:58:58.733Z,46.42
2023-05-09T15:01:26.146Z,46.55
2023-05-09T15:03:53.459Z,45.89
2023-05-09T15:06:20.790Z,46.91
2023-05-09T15:08:48.000Z,46.40
2023-05-09T15:11:15.276Z,46.43
2023-05-09T15:13:42.419Z,46.19
2023-05-09T15:16:10.120Z,46.53
2023-05-09T15:18:37.365Z,46.57
2023-05-09T15:21:04.890Z,46.04
2023-05-09T15:23:32.186Z,46.10
2023-05-09T15:25:59.396Z,45.27
2023-05-09T15:28:26.570Z,45.19
2023-05-09T15:30:53.908Z,45.64
2023-05-09T15:33:21.192Z,45.74
2023-05-09T15:35:50.149Z,45.19
2023-05-09T15:38:17.426Z,44.94
2023-05-09T15:40:44.641Z,45.01
2023-05-09T15:43:12.982Z,45.83
2023-05-09T15:45:45.494Z,46.29
2023-05-09T15:48:14.261Z,47.16
2023-05-09T15:50:44.986Z,48.31
2023-05-09T15:53:12.184Z,47.92
2023-05-09T15:55:39.361Z,47.18
2023-05-09T15:58:07.489Z,46.80
2023-05-09T16:00:34.607Z,46.75
2023-05-09T16:03:01.946Z,47.33
2023-05-09T16:05:29.254Z,47.76
2023-05-09T16:07:56.499Z,46.44
2023-05-09T16:10:23.643Z,46.70
2023-05-09T16:12:51.175Z,47.13
2023-05-09T16:15:18.426Z,45.75
2023-05-09T16:17:45.610Z,45.89
2023-05-09T16:20:14.271Z,47.16
2023-05-09T16:22:42.163Z,47.50
2023-05-09T16:25:09.632Z,48.75
2023-05-09T16:27:36.959Z,48.49
2023-05-09T16:30:05.752Z,47.46
2023-05-09T16:32:32.941Z,47.28
2023-05-09T16:35:00.141Z,46.93
2023-05-09T16:37:29.833Z,45.66
2023-05-09T16:39:57.868Z,45.98
2023-05-09T16:42:25.519Z,45.75
2023-05-09T16:44:52.697Z,45.75
2023-05-09T16:47:19.920Z,45.12
2023-05-09T16:49:47.051Z,44.67
2023-05-09T16:52:14.343Z,44.80
2023-05-09T16:54:41.551Z,44.58
2023-05-09T16:57:08.864Z,44.42
2023-05-09T16:59:37.217Z,44.58
2023-05-09T17:02:04.708Z,44.12
2023-05-09T17:04:32.074Z,45.15
2023-05-09T17:06:59.314Z,46.64
2023-05-09T17:09:26.611Z,48.45
2023-05-09T17:11:53.805Z,49.38
2023-05-09T17:14:20.982Z,50.14
2023-05-09T17:16:48.234Z,50.97
2023-05-09T17:19:16.515Z,51.08
2023-05-09T17:21:44.341Z,51.47
2023-05-09T17:24:11.501Z,51.89
2023-05-09T17:26:39.133Z,52.19
2023-05-09T17:29:06.297Z,52.59
2023-05-09T17:31:33.533Z,52.82
2023-05-09T17:34:01.454Z,53.31
2023-05-09T17:36:28.762Z,53.58
2023-05-09T17:38:56.138Z,53.68
2023-05-09T17:41:23.354Z,54.12
2023-05-09T17:43:53.882Z,54.23
2023-05-09T17:46:21.153Z,54.24
2023-05-09T17:48:48.619Z,54.61
2023-05-09T17:51:16.967Z,54.83
2023-05-09T17:53:44.206Z,54.93
2023-05-09T17:56:11.408Z,55.38
2023-05-09T17:58:38.609Z,55.54
2023-05-09T18:01:05.930Z,55.67
2023-05-09T18:03:33.274Z,55.85
2023-05-09T18:06:01.657Z,55.96
2023-05-09T18:08:29.807Z,56.25
2023-05-09T18:10:57.809Z,56.69
2023-05-09T18:13:25.117Z,56.73
2023-05-09T18:15:54.899Z,57.36
2023-05-09T18:18:23.046Z,57.84
2023-05-09T18:20:50.397Z,58.12
2023-05-09T18:23:17.548Z,58.13
2023-05-09T18:25:44.766Z,58.72
2023-05-09T18:28:11.952Z,58.48
2023-05-09T18:30:39.494Z,58.25
2023-05-09T18:33:07.175Z,59.24
2023-05-09T18:35:34.471Z,58.62
2023-05-09T18:38:01.959Z,59.11
2023-05-09T18:40:29.285Z,59.60
2023-05-09T18:42:56.432Z,60.11
2023-05-09T18:45:23.775Z,60.47
2023-05-09T18:47:51.132Z,61.16
2023-05-09T18:50:19.114Z,61.11
2023-05-09T18:52:46.414Z,61.24
2023-05-09T18:55:14.841Z,61.77
2023-05-09T18:57:42.081Z,62.44
2023-05-09T19:00:09.673Z,62.24
2023-05-09T19:02:36.942Z,62.06
2023-05-09T19:05:08.580Z,61.74
2023-05-09T19:07:35.811Z,62.92
2023-05-09T19:10:08.219Z,62.98
2023-05-09T19:12:35.477Z,63.76
2023-05-09T19:15:03.471Z,63.70
2023-05-09T19:17:30.724Z,63.43
2023-05-09T19:19:58.009Z,63.13
2023-05-09T19:22:25.306Z,64.35
2023-05-09T19:24:52.511Z,63.46
2023-05-09T19:27:19.705Z,63.05
2023-05-09T19:29:49.263Z,63.56
2023-05-09T19:32:18.048Z,64.21
2023-05-09T19:34:45.223Z,64.49
2023-05-09T19:37:12.449Z,64.99
2023-05-09T19:39:39.586Z,66.72
2023-05-09T19:42:08.008Z,67.03
2023-05-09T19:44:35.306Z,66.78
2023-05-09T19:47:05.265Z,66.34
2023-05-09T19:49:32.763Z,66.41
2023-05-09T19:51:59.919Z,65.45
2023-05-09T19:54:27.241Z,65.45
2023-05-09T19:56:54.570Z,65.50
2023-05-09T19:59:21.756Z,65.94
2023-05-09T20:01:49.110Z,66.40
2023-05-09T20:04:16.558Z,66.81
2023-05-09T20:06:43.891Z,67.59
2023-05-09T20:09:11.304Z,68.34
2023-05-09T20:11:38.457Z,69.26
2023-05-09T20:14:05.635Z,69.61
2023-05-09T20:16:33.232Z,69.88
2023-05-09T20:19:00.689Z,70.77
2023-05-09T20:21:27.916Z,70.90
2023-05-09T20:23:55.067Z,71.14
2023-05-09T20:26:24.519Z,71.36
2023-05-09T20:28:54.519Z,71.60
2023-05-09T20:31:21.738Z,71.55
2023-05-09T20:33:48.984Z,71.35
2023-05-09T20:36:16.173Z,71.57
2023-05-09T20:38:43.532Z,71.55
2023-05-09T20:41:10.711Z,71.73
2023-05-09T20:43:38.366Z,71.73
2023-05-09T20:46:05.557Z,71.78
2023-05-09T20:48:33.189Z,72.03
2023-05-09T20:51:00.584Z,72.08
2023-05-09T20:53:31.243Z,71.93
2023-05-09T20:55:59.838Z,72.24
2023-05-09T20:58:32.277Z,72.16
2023-05-09T21:00:59.612Z,72.53
2023-05-09T21:03:26.979Z,72.59
2023-05-09T21:05:54.326Z,72.45
2023-05-09T21:08:21.535Z,72.67
2023-05-09T21:10:51.709Z,72.67
2023-05-09T21:13:18.971Z,72.87
2023-05-09T21:15:50.108Z,73.01
2023-05-09T21:18:17.509Z,73.00
2023-05-09T21:20:45.309Z,73.07
2023-05-09T21:23:12.473Z,73.35
2023-05-09T21:25:39.793Z,73.37
2023-05-09T21:28:06.963Z,73.54
2023-05-09T21:30:34.114Z,73.78
2023-05-09T21:33:01.940Z,74.16
2023-05-09T21:35:29.206Z,74.07
2023-05-09T21:37:56.414Z,74.21
2023-05-09T21:40:23.747Z,74.24
2023-05-09T21:42:50.875Z,74.53
2023-05-09T21:45:18.480Z,74.45
2023-05-09T21:47:45.945Z,74.63
2023-05-09T21:50:13.927Z,74.70
2023-05-09T21:52:41.327Z,74.72
2023-05-09T21:55:09.152Z,74.67
2023-05-09T21:57:36.332Z,74.94
2023-05-09T22:00:05.634Z,75.12
2023-05-09T22:02:42.562Z,75.05
2023-05-09T22:05:10.553Z,75.26
2023-05-09T22:07:37.705Z,75.43
2023-05-09T22:10:05.610Z,75.46
2023-05-09T22:12:32.964Z,75.61
2023-05-09T22:15:00.172Z,75.65
2023-05-09T22:17:27.378Z,75.90
2023-05-09T22:19:54.589Z,75.85
2023-05-09T22:22:21.839Z,76.13
2023-05-09T22:24:49.800Z,76.16
2023-05-09T22:27:16.978Z,76.30
2023-05-09T22:29:44.230Z,76.42
2023-05-09T22:32:11.634Z,76.48
2023-05-09T22:34:38.934Z,76.61
2023-05-09T22:37:06.238Z,76.74
2023-05-09T22:39:33.431Z,76.93
2023-05-09T22:42:02.493Z,77.18
2023-05-09T22:44:29.735Z,77.09
2023-05-09T22:46:56.951Z,77.45
2023-05-09T22:49:24.289Z,77.79
2023-05-09T22:51:51.457Z,77.92
2023-05-09T22:54:21.692Z,77.72
2023-05-09T22:56:49.039Z,78.37
2023-05-09T22:59:16.329Z,78.57
2023-05-09T23:01:43.697Z,78.83
2023-05-09T23:04:10.957Z,79.40
2023-05-09T23:06:38.139Z,80.36
2023-05-09T23:09:05.328Z,79.75
2023-05-09T23:11:32.499Z,80.03
2023-05-09T23:13:59.828Z,80.20
2023-05-09T23:16:27.001Z,80.01
2023-05-09T23:18:54.230Z,80.26
2023-05-09T23:21:21.463Z,80.74
2023-05-09T23:23:48.691Z,80.93
2023-05-09T23:26:15.840Z,81.77
2023-05-09T23:28:43.057Z,81.86
2023-05-09T23:31:10.460Z,81.70
2023-05-09T23:33:37.691Z,81.58
2023-05-09T23:36:05.301Z,81.86
2023-05-09T23:38:32.463Z,82.13
2023-05-09T23:41:01.077Z,82.57
2023-05-09T23:43:28.884Z,82.28
2023-05-09T23:45:59.376Z,83.53
2023-05-09T23:48:26.869Z,83.22
2023-05-09T23:50:54.027Z,82.99
2023-05-09T23:53:21.418Z,83.77
2023-05-09T23:55:48.737Z,84.14
2023-05-09T23:58:16.486Z,84.20
